createdAt,value
2019-04-16T00:02:52.242Z,4.72
2019-04-16T00:06:04.700Z,4.84
2019-04-16T00:09:16.040Z,4.83
2019-04-16T00:12:26.828Z,4.78
2019-04-16T00:15:32.316Z,4.63
2019-04-16T00:18:37.545Z,4.61
2019-04-16T00:21:53.260Z,4.58
2019-04-16T00:24:58.571Z,4.63
2019-04-16T00:28:03.821Z,4.27
2019-04-16T00:31:11.640Z,4.20
2019-04-16T00:34:16.894Z,4.00
2019-04-16T00:37:22.125Z,4.12
2019-04-16T00:40:27.390Z,4.50
2019-04-16T00:43:32.603Z,4.53
2019-04-16T00:46:37.885Z,4.57
2019-04-16T00:49:43.106Z,4.42
2019-04-16T00:52:48.385Z,4.42
2019-04-16T00:55:53.714Z,4.37
2019-04-16T00:58:58.996Z,4.30
2019-04-16T01:02:04.204Z,4.39
2019-04-16T01:05:09.595Z,4.43
2019-04-16T01:08:14.929Z,4.42
2019-04-16T01:11:20.164Z,4.32
2019-04-16T01:14:26.791Z,4.27
2019-04-16T01:17:33.507Z,4.23
2019-04-16T01:20:40.384Z,4.03
2019-04-16T01:23:48.798Z,4.00
2019-04-16T01:26:55.407Z,3.80
2019-04-16T01:30:04.870Z,3.77
2019-04-16T01:33:17.555Z,3.78
2019-04-16T01:36:31.423Z,3.82
2019-04-16T01:39:38.134Z,3.87
2019-04-16T01:42:44.963Z,3.86
2019-04-16T01:45:51.133Z,3.86
2019-04-16T01:48:56.427Z,3.92
2019-04-16T01:52:01.698Z,3.87
2019-04-16T01:55:07.068Z,3.86
2019-04-16T01:58:12.333Z,3.83
2019-04-16T02:01:17.579Z,3.76
2019-04-16T02:04:22.839Z,3.68
2019-04-16T02:07:28.667Z,3.56
2019-04-16T02:10:35.490Z,3.50
2019-04-16T02:13:45.820Z,3.42
2019-04-16T02:16:48.980Z,3.32
2019-04-16T02:19:54.274Z,3.27
2019-04-16T02:22:59.544Z,3.16
2019-04-16T02:26:04.778Z,3.15
2019-04-16T02:29:10.087Z,3.12
2019-04-16T02:32:15.370Z,3.04
2019-04-16T02:35:20.594Z,3.01
2019-04-16T02:38:25.855Z,2.98
2019-04-16T02:41:31.072Z,2.86
2019-04-16T02:44:36.417Z,2.93
2019-04-16T02:47:42.502Z,2.99
2019-04-16T02:50:51.440Z,2.96
2019-04-16T02:54:06.747Z,3.09
2019-04-16T02:57:40.355Z,2.98
2019-04-16T03:01:07.643Z,3.00
2019-04-16T03:04:17.644Z,2.93
2019-04-16T03:07:22.911Z,2.94
2019-04-16T03:10:28.198Z,2.74
2019-04-16T03:13:33.442Z,2.71
2019-04-16T03:16:46.469Z,2.74
2019-04-16T03:19:52.215Z,2.62
2019-04-16T03:22:57.471Z,2.60
2019-04-16T03:26:02.946Z,2.68
2019-04-16T03:29:08.348Z,2.57
2019-04-16T03:32:15.931Z,2.70
2019-04-16T03:35:25.166Z,2.69
2019-04-16T03:38:28.267Z,2.71
2019-04-16T03:41:33.529Z,2.61
2019-04-16T03:44:38.920Z,2.62
2019-04-16T03:47:44.278Z,2.62
2019-04-16T03:50:49.607Z,2.60
2019-04-16T03:53:57.380Z,2.46
2019-04-16T03:57:02.902Z,2.40
2019-04-16T04:00:12.450Z,2.28
2019-04-16T04:03:15.780Z,2.28
2019-04-16T04:06:21.142Z,2.21
2019-04-16T04:09:26.488Z,2.23
2019-04-16T04:12:33.343Z,2.22
2019-04-16T04:15:38.588Z,2.21
2019-04-16T04:18:43.954Z,2.19
2019-04-16T04:21:50.599Z,2.21
2019-04-16T04:24:56.262Z,2.14
2019-04-16T04:28:01.494Z,2.21
2019-04-16T04:31:06.880Z,2.25
2019-04-16T04:34:15.468Z,2.32
2019-04-16T04:37:19.158Z,2.55
2019-04-16T04:40:24.489Z,2.69
2019-04-16T04:43:32.026Z,3.03
2019-04-16T04:46:37.820Z,3.39
2019-04-16T04:49:44.173Z,3.76
2019-04-16T04:52:49.583Z,3.94
2019-04-16T04:55:57.150Z,4.15
2019-04-16T04:59:02.506Z,4.80
2019-04-16T05:02:10.583Z,4.72
2019-04-16T05:05:29.399Z,5.27
2019-04-16T05:08:34.704Z,5.77
2019-04-16T05:11:40.040Z,5.67
2019-04-16T05:14:57.214Z,5.68
2019-04-16T05:18:00.717Z,5.91
2019-04-16T05:21:05.878Z,6.16
2019-04-16T05:24:11.171Z,6.68
2019-04-16T05:27:19.491Z,6.49
2019-04-16T05:30:24.813Z,6.75
2019-04-16T05:33:30.027Z,7.13
2019-04-16T05:36:35.343Z,6.74
2019-04-16T05:39:40.602Z,7.30
2019-04-16T05:42:47.893Z,7.63
2019-04-16T05:45:53.292Z,8.05
2019-04-16T05:48:58.514Z,8.58
2019-04-16T05:52:04.163Z,8.53
2019-04-16T05:55:24.537Z,8.44
2019-04-16T05:58:32.082Z,9.15
2019-04-16T06:01:45.436Z,9.38
2019-04-16T06:04:55.629Z,9.12
2019-04-16T06:08:09.090Z,9.05
2019-04-16T06:11:27.622Z,10.34
2019-04-16T06:14:33.669Z,9.46
2019-04-16T06:18:10.103Z,9.63
2019-04-16T06:21:43.219Z,10.31
2019-04-16T06:25:11.157Z,10.58
2019-04-16T06:28:38.398Z,10.80
2019-04-16T06:32:08.358Z,10.73
2019-04-16T06:35:44.034Z,9.93
2019-04-16T06:38:55.030Z,10.67
2019-04-16T06:42:21.298Z,11.51
2019-04-16T06:45:36.540Z,11.18
2019-04-16T06:48:46.027Z,10.24
2019-04-16T06:52:16.643Z,9.97
2019-04-16T06:55:46.179Z,9.02
2019-04-16T06:59:10.292Z,8.78
2019-04-16T07:02:55.683Z,8.65
2019-04-16T07:06:09.772Z,8.34
2019-04-16T07:09:41.483Z,8.20
2019-04-16T07:12:40.941Z,8.39
2019-04-16T07:15:46.411Z,8.41
2019-04-16T07:18:51.723Z,8.07
2019-04-16T07:21:57.034Z,8.32
2019-04-16T07:25:04.561Z,8.16
2019-04-16T07:28:31.412Z,8.52
2019-04-16T07:31:42.578Z,8.52
2019-04-16T07:34:53.448Z,8.20
2019-04-16T07:38:11.380Z,8.86
2019-04-16T07:41:33.471Z,8.52
2019-04-16T07:44:56.737Z,8.75
2019-04-16T07:48:07.005Z,8.85
2019-04-16T07:51:30.263Z,8.80
2019-04-16T07:54:51.172Z,8.81
2019-04-16T07:57:56.555Z,8.79
2019-04-16T08:01:01.913Z,8.77
2019-04-16T08:04:07.193Z,8.79
2019-04-16T08:07:12.477Z,8.71
2019-04-16T08:10:17.883Z,9.07
2019-04-16T08:13:24.598Z,9.31
2019-04-16T08:16:29.932Z,9.27
2019-04-16T08:19:37.256Z,9.09
2019-04-16T08:22:47.287Z,9.08
2019-04-16T08:25:56.249Z,8.95
2019-04-16T08:28:56.296Z,9.34
2019-04-16T08:32:01.654Z,9.24
2019-04-16T08:35:07.256Z,9.02
2019-04-16T08:38:12.471Z,9.37
2019-04-16T08:41:21.372Z,9.67
2019-04-16T08:44:24.815Z,9.69
2019-04-16T08:47:30.125Z,9.76
2019-04-16T08:50:35.598Z,9.85
2019-04-16T08:53:43.835Z,9.99
2019-04-16T08:56:49.483Z,10.11
2019-04-16T08:59:54.718Z,10.21
2019-04-16T09:03:01.276Z,9.83
2019-04-16T09:06:07.637Z,10.18
2019-04-16T09:09:28.831Z,10.27
2019-04-16T09:12:34.139Z,10.51
2019-04-16T09:15:39.562Z,10.45
2019-04-16T09:19:12.846Z,10.58
2019-04-16T09:22:18.221Z,10.73
2019-04-16T09:25:54.758Z,10.83
2019-04-16T09:29:18.876Z,10.93
2019-04-16T09:32:42.998Z,11.02
2019-04-16T09:35:57.869Z,11.23
2019-04-16T09:39:13.161Z,11.19
2019-04-16T09:42:18.595Z,11.53
2019-04-16T09:45:25.017Z,11.89
2019-04-16T09:48:34.087Z,11.94
2019-04-16T09:51:37.601Z,12.02
2019-04-16T09:54:44.449Z,11.97
2019-04-16T09:57:49.866Z,12.11
2019-04-16T10:01:03.103Z,12.21
2019-04-16T10:04:10.132Z,12.18
2019-04-16T10:07:15.448Z,12.33
2019-04-16T10:10:20.690Z,12.21
2019-04-16T10:13:31.747Z,12.28
2019-04-16T10:16:33.001Z,12.41
2019-04-16T10:19:42.987Z,12.56
2019-04-16T10:22:45.320Z,12.66
2019-04-16T10:25:50.701Z,12.70
2019-04-16T10:28:59.438Z,12.77
2019-04-16T10:32:04.771Z,12.59
2019-04-16T10:35:10.248Z,12.73
2019-04-16T10:38:37.509Z,13.01
2019-04-16T10:42:10.855Z,12.86
2019-04-16T10:45:27.741Z,13.00
2019-04-16T10:48:52.287Z,13.09
2019-04-16T10:52:16.531Z,13.09
2019-04-16T10:55:27.971Z,13.25
2019-04-16T10:58:50.947Z,13.29
2019-04-16T11:02:17.951Z,13.24
2019-04-16T11:06:00.817Z,13.01
2019-04-16T11:09:08.344Z,12.99
2019-04-16T11:12:13.776Z,13.18
2019-04-16T11:15:22.826Z,13.41
2019-04-16T11:18:28.218Z,13.24
2019-04-16T11:21:33.535Z,13.14
2019-04-16T11:24:39.490Z,13.43
2019-04-16T11:27:44.906Z,13.58
2019-04-16T11:30:53.462Z,13.49
2019-04-16T11:34:10.428Z,13.59
2019-04-16T11:37:17.159Z,13.46
2019-04-16T11:40:22.602Z,13.60
2019-04-16T11:43:27.943Z,13.71
2019-04-16T11:46:33.389Z,13.78
2019-04-16T11:49:38.701Z,13.80
2019-04-16T11:52:43.900Z,13.92
2019-04-16T11:55:50.427Z,13.83
2019-04-16T11:58:57.409Z,14.04
2019-04-16T12:02:21.801Z,14.13
2019-04-16T12:05:35.263Z,13.98
2019-04-16T12:09:02.569Z,14.18
2019-04-16T12:12:22.944Z,14.23
2019-04-16T12:15:43.577Z,14.27
2019-04-16T12:19:06.546Z,14.29
2019-04-16T12:22:24.987Z,14.20
2019-04-16T12:25:46.011Z,14.30
2019-04-16T12:28:56.803Z,14.51
2019-04-16T12:32:21.056Z,14.57
2019-04-16T12:35:45.214Z,14.43
2019-04-16T12:39:06.234Z,14.34
2019-04-16T12:42:21.146Z,14.50
2019-04-16T12:45:53.439Z,14.51
2019-04-16T12:49:17.394Z,14.72
2019-04-16T12:52:59.959Z,14.88
2019-04-16T12:56:24.327Z,14.78
2019-04-16T12:59:48.774Z,14.89
2019-04-16T13:03:18.362Z,14.84
2019-04-16T13:06:32.036Z,14.89
2019-04-16T13:09:46.619Z,14.95
2019-04-16T13:13:01.652Z,14.92
2019-04-16T13:16:16.031Z,14.98
2019-04-16T13:19:49.561Z,15.17
2019-04-16T13:22:56.945Z,15.09
2019-04-16T13:26:22.416Z,14.97
2019-04-16T13:29:31.626Z,14.94
2019-04-16T13:32:37.047Z,15.21
2019-04-16T13:35:42.452Z,15.15
2019-04-16T13:38:58.811Z,15.16
2019-04-16T13:42:04.340Z,15.41
2019-04-16T13:45:32.815Z,15.25
2019-04-16T13:48:44.235Z,15.39
2019-04-16T13:51:49.496Z,15.52
2019-04-16T13:55:08.615Z,15.36
2019-04-16T13:58:25.111Z,15.49
2019-04-16T14:01:33.776Z,15.46
2019-04-16T14:04:39.287Z,15.46
2019-04-16T14:07:47.374Z,15.39
2019-04-16T14:10:52.680Z,15.68
2019-04-16T14:13:58.212Z,15.60
2019-04-16T14:17:09.656Z,15.47
2019-04-16T14:20:13.642Z,15.59
2019-04-16T14:23:18.884Z,15.69
2019-04-16T14:26:24.234Z,15.52
2019-04-16T14:29:29.645Z,15.47
2019-04-16T14:32:34.944Z,15.51
2019-04-16T14:35:40.801Z,15.80
2019-04-16T14:38:50.066Z,15.74
2019-04-16T14:41:56.870Z,15.74
2019-04-16T14:45:11.784Z,15.80
2019-04-16T14:48:17.072Z,15.55
2019-04-16T14:51:22.334Z,15.68
2019-04-16T14:54:52.157Z,15.60
2019-04-16T14:58:11.654Z,15.66
2019-04-16T15:01:44.006Z,15.73
2019-04-16T15:05:06.860Z,15.73
2019-04-16T15:08:43.330Z,15.82
2019-04-16T15:12:13.485Z,15.76
2019-04-16T15:15:24.082Z,15.86
2019-04-16T15:18:34.569Z,15.84
2019-04-16T15:21:58.731Z,15.82
2019-04-16T15:25:20.926Z,15.76
2019-04-16T15:28:35.054Z,15.78
2019-04-16T15:32:08.221Z,15.70
2019-04-16T15:35:17.395Z,15.92
2019-04-16T15:38:35.899Z,15.77
2019-04-16T15:41:52.056Z,15.89
2019-04-16T15:45:16.186Z,15.84
2019-04-16T15:48:40.307Z,15.71
2019-04-16T15:52:09.856Z,15.73
2019-04-16T15:55:39.744Z,15.76
2019-04-16T15:59:03.887Z,15.72
2019-04-16T16:02:27.190Z,15.72
2019-04-16T16:05:36.665Z,15.60
2019-04-16T16:09:09.314Z,15.54
2019-04-16T16:12:22.089Z,15.63
2019-04-16T16:15:26.320Z,15.58
2019-04-16T16:18:31.634Z,15.58
2019-04-16T16:21:37.085Z,15.47
2019-04-16T16:24:43.089Z,15.40
2019-04-16T16:27:50.731Z,15.30
2019-04-16T16:30:56.211Z,15.34
2019-04-16T16:34:01.568Z,15.41
2019-04-16T16:37:06.840Z,15.19
2019-04-16T16:40:15.210Z,15.15
2019-04-16T16:43:19.773Z,15.19
2019-04-16T16:46:56.023Z,15.06
2019-04-16T16:49:51.964Z,14.93
2019-04-16T16:53:12.295Z,15.06
2019-04-16T16:56:24.161Z,14.79
2019-04-16T16:59:43.673Z,14.80
2019-04-16T17:02:53.397Z,14.81
2019-04-16T17:05:59.186Z,14.69
2019-04-16T17:09:05.793Z,14.75
2019-04-16T17:12:13.849Z,14.56
2019-04-16T17:15:19.253Z,14.52
2019-04-16T17:18:24.544Z,14.51
2019-04-16T17:21:29.850Z,14.50
2019-04-16T17:24:35.130Z,14.39
2019-04-16T17:27:51.030Z,14.32
2019-04-16T17:30:47.518Z,14.19
2019-04-16T17:33:52.795Z,14.06
2019-04-16T17:36:58.120Z,13.96
2019-04-16T17:40:16.378Z,13.95
2019-04-16T17:43:30.239Z,13.78
2019-04-16T17:46:54.454Z,13.62
2019-04-16T17:50:21.829Z,13.53
2019-04-16T17:53:33.333Z,13.32
2019-04-16T17:57:04.700Z,13.23
2019-04-16T18:00:28.928Z,13.18
2019-04-16T18:03:48.244Z,13.01
2019-04-16T18:07:12.574Z,12.94
2019-04-16T18:10:39.818Z,12.66
2019-04-16T18:13:55.513Z,12.70
2019-04-16T18:17:27.629Z,12.55
2019-04-16T18:20:58.674Z,12.43
2019-04-16T18:24:18.193Z,12.32
2019-04-16T18:27:32.737Z,12.33
2019-04-16T18:30:46.098Z,12.22
2019-04-16T18:33:58.769Z,12.13
2019-04-16T18:37:26.322Z,12.18
2019-04-16T18:40:53.612Z,12.22
2019-04-16T18:44:23.863Z,12.05
2019-04-16T18:47:39.134Z,11.94
2019-04-16T18:50:44.701Z,11.87
2019-04-16T18:53:49.988Z,11.75
2019-04-16T18:56:55.304Z,11.55
2019-04-16T19:00:00.674Z,11.61
2019-04-16T19:03:06.018Z,11.55
2019-04-16T19:06:11.281Z,11.44
2019-04-16T19:09:16.678Z,11.43
2019-04-16T19:12:22.030Z,11.45
2019-04-16T19:15:27.377Z,11.43
2019-04-16T19:18:32.645Z,11.19
2019-04-16T19:21:42.068Z,11.20
2019-04-16T19:24:46.662Z,11.27
2019-04-16T19:27:52.494Z,11.11
2019-04-16T19:30:58.938Z,10.99
2019-04-16T19:34:08.527Z,10.86
2019-04-16T19:37:11.703Z,10.60
2019-04-16T19:40:18.860Z,10.53
2019-04-16T19:43:24.198Z,10.40
2019-04-16T19:46:29.721Z,10.31
2019-04-16T19:49:36.164Z,10.44
2019-04-16T19:52:45.438Z,10.42
2019-04-16T19:55:48.798Z,10.11
2019-04-16T19:58:54.345Z,10.10
2019-04-16T20:02:01.655Z,9.85
2019-04-16T20:05:07.957Z,10.05
2019-04-16T20:08:13.593Z,9.92
2019-04-16T20:11:21.348Z,10.00
2019-04-16T20:14:26.052Z,9.96
2019-04-16T20:17:31.283Z,10.11
2019-04-16T20:20:36.680Z,9.78
2019-04-16T20:23:49.335Z,9.71
2019-04-16T20:26:57.314Z,9.49
2019-04-16T20:30:02.653Z,9.54
2019-04-16T20:33:10.832Z,9.33
2019-04-16T20:36:16.172Z,9.57
2019-04-16T20:39:21.533Z,9.94
2019-04-16T20:42:26.789Z,9.99
2019-04-16T20:45:32.154Z,9.72
2019-04-16T20:48:37.433Z,9.71
2019-04-16T20:51:42.818Z,9.55
2019-04-16T20:54:53.924Z,9.76
2019-04-16T20:58:00.258Z,9.75
2019-04-16T21:01:06.159Z,9.64
2019-04-16T21:04:13.117Z,9.63
2019-04-16T21:07:21.475Z,9.34
2019-04-16T21:10:26.781Z,9.66
2019-04-16T21:13:32.128Z,9.67
2019-04-16T21:16:37.436Z,9.75
2019-04-16T21:19:47.995Z,9.81
2019-04-16T21:22:53.632Z,9.76
2019-04-16T21:25:58.923Z,9.64
2019-04-16T21:29:14.582Z,9.51
2019-04-16T21:32:42.214Z,9.50
2019-04-16T21:35:50.093Z,9.50
2019-04-16T21:39:09.896Z,9.34
2019-04-16T21:42:16.877Z,9.33
2019-04-16T21:45:22.190Z,9.41
2019-04-16T21:48:27.804Z,9.23
2019-04-16T21:51:33.438Z,9.35
2019-04-16T21:54:39.126Z,9.61
2019-04-16T21:57:46.100Z,9.78
2019-04-16T22:01:09.402Z,10.00
2019-04-16T22:04:17.441Z,10.25
2019-04-16T22:07:24.691Z,10.59
2019-04-16T22:10:30.942Z,10.44
2019-04-16T22:13:36.242Z,10.34
2019-04-16T22:16:41.578Z,10.29
2019-04-16T22:19:54.461Z,10.20
2019-04-16T22:22:54.017Z,10.37
2019-04-16T22:26:01.382Z,10.31
2019-04-16T22:29:06.386Z,10.21
2019-04-16T22:32:11.651Z,10.20
2019-04-16T22:35:16.933Z,10.19
2019-04-16T22:38:22.226Z,10.20
2019-04-16T22:41:49.366Z,10.25
2019-04-16T22:45:12.489Z,10.25
2019-04-16T22:48:17.722Z,10.05
2019-04-16T22:51:23.991Z,10.04
2019-04-16T22:54:29.208Z,10.01
2019-04-16T22:57:34.477Z,10.04
2019-04-16T23:00:44.359Z,10.10
2019-04-16T23:03:53.364Z,10.05
2019-04-16T23:06:57.368Z,10.14
2019-04-16T23:10:02.647Z,10.00
2019-04-16T23:13:08.070Z,10.03
2019-04-16T23:16:13.442Z,10.28
2019-04-16T23:19:20.318Z,10.12
2019-04-16T23:22:25.716Z,10.03
2019-04-16T23:25:30.986Z,10.13
2019-04-16T23:28:36.226Z,10.12
2019-04-16T23:31:43.776Z,10.10
2019-04-16T23:34:48.997Z,9.96
2019-04-16T23:37:58.088Z,9.90
2019-04-16T23:41:01.360Z,9.72
2019-04-16T23:44:27.747Z,9.80
2019-04-16T23:48:01.637Z,9.60
2019-04-16T23:51:20.437Z,9.59
2019-04-16T23:54:32.179Z,9.51
2019-04-16T23:57:48.789Z,9.56
